Ana Sayfa
METAR-TAF:

METAR-TAF

Havaalanları :

Meridian Regional Airport (Key Field)

Meridian, Mississipi, Amerika Birleşik Devletleri

Enlem: 32-20-17N, Boylam: 088-44-52W, yükseklik: 90 m

Güncel hava durumu gözlemi

Rapor saat 18:58 UTC de 41 dakika önce yapıldı.
Sakin rüzgar
Sıcaklık 38°C
Nem 33%
Basınç 1014 hPa
Görüş mesafesi: 16.1 km
Açık gökyüzü

METAR: KMEI 251858Z 00000KT 10SM CLR 38/19 A2995 RMK AO2 SLP136 T03780194 $

Saat: 14:39 (19:39 UTC)

Tahmin

Rapor saat 17:34 UTC de 2 saat ve 5 dakika önce yapıldı.
Ayın 25'si saat 18 UTC'den ayın 26'si saat 18 UTC'ye kadar geçerli Tahmin
Rüzgar batı/kuzeybatıdan 4 kt
Görüş mesafesi: 10 km
6000 ft yükseklikte az bulutlu

TAF: KMEI 251734Z 2518/2618 30004KT P6SM FEW060

4.000'den fazla havaalanı için hava durumu gözlemleri ve tahminleri (METAR ve TAF raporları).

Kullanılabilir istasyonlar harita üzerinde sarı ve kırmızı noktalarla gösterilir.

İstasyonun adını görmek için fareyi noktanın üzerinde gezdirin.

Sonrasında hava gözlem ve tahminlerini görmek için tıklayın.

Haritayı değiştirmek için: yaklaştırmak için siyah artı işaretli yeşil düğmeye ve uzaklaştırmak için de eksi işaretli düğmeye hızla tıklayın; bitişik haritalar için yeşil okları kullanın.


METAR-TAF: